Airfield :
LOGIN :

Register | Disclaimer

   EN    FR    IT 

 










Legend :    VFR   Marginal VFR   IFR   Intensive IFR   Very Intensive IFR
Visi :
Ceiling :
>= 8 km
>= 3000ft
5 to 8 km
1000 to 3000 ft
1500m to 5 km
500 to 1000 ft
800 to 1500m
200 to 500 ft
< 800m
< 200 ft
Symbols :   Thunderstorms  Fog  Heavy snow  Heavy precipitations  Wind > 20 kt
SIGMETs :     Misc.  Thunderstorms  Icing  Turbulence  Mountain Waves  Volcanic Ashes






- Airport Elevation : 157 ft


LESB - Son Bonet

CURRENT METAR :
  • 131700Z AUTO 30004KT 280V340 9999 FEW042/// BKN048/// BKN053/// 13/10 Q1010

EXPIRED METARs :
  • 131630Z AUTO 33004KT 300V360 9999 BKN031/// OVC036/// 13/09 Q1009
  • 131600Z AUTO 34004KT 9999 BKN033/// OVC038/// 14/09 Q1008
  • 131530Z AUTO 34008KT 9999 FEW020/// BKN035/// BKN040/// 14/09 Q1008
  • 131500Z AUTO 31001KT 9999 FEW020/// OVC049/// 14/10 Q1008
  • 131430Z AUTO 36003KT 330V040 9999 FEW010/// SCT022/// BKN042/// 14/11 Q1007

TAF N/A



MET'MAP, your aeronautical weather chart ! - Copyright ORBIFLY December 2007 - Disclaimer

ORBIFLY MET'MAP TEAM :

Programming & Development : Alexandra Zaïnal
Concept & Development : Baudouin d'Aumeries
Co-Development & Prog : Marc-Olivier Méhu
Technical & hardware support : Manuel Goepfert

Contact : metmap@orbifly.com




SOURCES & CREDITS :

   NOAA